sensor_id;sensor_type;location;lat;lon;timestamp;P1;durP1;ratioP1;P2;durP2;ratioP2
23682;SDS011;24897;53.514;10.482;2023-02-19T00:01:19;74.47;;;49.23;;
23682;SDS011;24897;53.514;10.482;2023-02-19T00:04:05;80.20;;;48.90;;
23682;SDS011;24897;53.514;10.482;2023-02-19T00:06:52;85.63;;;51.57;;
23682;SDS011;24897;53.514;10.482;2023-02-19T00:09:36;76.53;;;49.70;;
23682;SDS011;24897;53.514;10.482;2023-02-19T00:12:20;80.87;;;49.83;;
23682;SDS011;24897;53.514;10.482;2023-02-19T00:15:04;81.87;;;51.43;;
23682;SDS011;24897;53.514;10.482;2023-02-19T00:17:49;81.83;;;49.60;;
23682;SDS011;24897;53.514;10.482;2023-02-19T00:20:42;81.37;;;47.67;;
23682;SDS011;24897;53.514;10.482;2023-02-19T00:23:26;79.13;;;50.83;;
23682;SDS011;24897;53.514;10.482;2023-02-19T00:26:11;79.83;;;47.93;;
23682;SDS011;24897;53.514;10.482;2023-02-19T00:28:56;81.83;;;49.73;;
23682;SDS011;24897;53.514;10.482;2023-02-19T00:31:40;80.87;;;48.63;;
23682;SDS011;24897;53.514;10.482;2023-02-19T00:34:25;81.40;;;49.70;;
23682;SDS011;24897;53.514;10.482;2023-02-19T00:37:09;83.47;;;51.80;;
23682;SDS011;24897;53.514;10.482;2023-02-19T00:39:54;76.53;;;50.63;;
23682;SDS011;24897;53.514;10.482;2023-02-19T00:42:38;75.80;;;47.80;;
23682;SDS011;24897;53.514;10.482;2023-02-19T00:45:22;80.40;;;48.17;;
23682;SDS011;24897;53.514;10.482;2023-02-19T00:48:06;72.07;;;46.37;;
23682;SDS011;24897;53.514;10.482;2023-02-19T00:50:50;75.60;;;47.30;;
23682;SDS011;24897;53.514;10.482;2023-02-19T00:53:34;78.90;;;48.53;;
23682;SDS011;24897;53.514;10.482;2023-02-19T00:56:19;73.83;;;46.33;;
23682;SDS011;24897;53.514;10.482;2023-02-19T00:59:02;78.83;;;47.97;;
23682;SDS011;24897;53.514;10.482;2023-02-19T01:01:46;72.03;;;46.43;;
23682;SDS011;24897;53.514;10.482;2023-02-19T01:04:32;71.03;;;46.40;;
23682;SDS011;24897;53.514;10.482;2023-02-19T01:07:16;88.70;;;48.93;;
23682;SDS011;24897;53.514;10.482;2023-02-19T01:10:01;67.70;;;43.30;;
23682;SDS011;24897;53.514;10.482;2023-02-19T01:12:45;76.93;;;46.60;;
23682;SDS011;24897;53.514;10.482;2023-02-19T01:15:31;81.37;;;47.23;;
23682;SDS011;24897;53.514;10.482;2023-02-19T01:18:16;80.50;;;45.70;;
23682;SDS011;24897;53.514;10.482;2023-02-19T01:21:07;75.70;;;46.10;;
23682;SDS011;24897;53.514;10.482;2023-02-19T01:23:55;75.20;;;45.30;;
23682;SDS011;24897;53.514;10.482;2023-02-19T01:26:42;77.27;;;47.27;;
23682;SDS011;24897;53.514;10.482;2023-02-19T01:29:26;73.20;;;45.93;;
23682;SDS011;24897;53.514;10.482;2023-02-19T01:32:10;81.43;;;46.77;;
23682;SDS011;24897;53.514;10.482;2023-02-19T01:34:54;87.03;;;47.50;;
23682;SDS011;24897;53.514;10.482;2023-02-19T01:37:38;81.77;;;48.23;;
23682;SDS011;24897;53.514;10.482;2023-02-19T01:40:23;69.47;;;44.67;;
23682;SDS011;24897;53.514;10.482;2023-02-19T01:43:13;87.77;;;47.80;;
23682;SDS011;24897;53.514;10.482;2023-02-19T01:45:58;78.80;;;47.67;;
23682;SDS011;24897;53.514;10.482;2023-02-19T01:48:43;84.57;;;47.93;;
23682;SDS011;24897;53.514;10.482;2023-02-19T01:51:27;67.07;;;43.90;;
23682;SDS011;24897;53.514;10.482;2023-02-19T01:54:14;64.10;;;44.23;;
23682;SDS011;24897;53.514;10.482;2023-02-19T01:57:06;58.10;;;39.73;;
23682;SDS011;24897;53.514;10.482;2023-02-19T01:59:57;60.00;;;40.37;;
23682;SDS011;24897;53.514;10.482;2023-02-19T02:02:47;60.10;;;39.43;;
23682;SDS011;24897;53.514;10.482;2023-02-19T02:06:10;60.37;;;39.23;;
23682;SDS011;24897;53.514;10.482;2023-02-19T02:08:50;60.57;;;38.80;;
23682;SDS011;24897;53.514;10.482;2023-02-19T02:11:55;60.90;;;40.27;;
23682;SDS011;24897;53.514;10.482;2023-02-19T02:14:40;54.23;;;37.93;;
23682;SDS011;24897;53.514;10.482;2023-02-19T02:32:49;59.67;;;40.30;;
23682;SDS011;24897;53.514;10.482;2023-02-19T02:36:00;52.93;;;37.70;;
23682;SDS011;24897;53.514;10.482;2023-02-19T02:38:49;53.90;;;38.90;;
23682;SDS011;24897;53.514;10.482;2023-02-19T02:41:41;50.50;;;37.67;;
23682;SDS011;24897;53.514;10.482;2023-02-19T02:44:32;52.10;;;37.97;;
23682;SDS011;24897;53.514;10.482;2023-02-19T02:47:18;53.30;;;37.97;;
23682;SDS011;24897;53.514;10.482;2023-02-19T02:50:40;51.20;;;38.03;;
23682;SDS011;24897;53.514;10.482;2023-02-19T02:53:33;51.57;;;38.17;;
23682;SDS011;24897;53.514;10.482;2023-02-19T02:56:50;55.80;;;38.70;;
23682;SDS011;24897;53.514;10.482;2023-02-19T02:59:37;50.70;;;37.77;;
23682;SDS011;24897;53.514;10.482;2023-02-19T03:02:23;48.67;;;36.93;;
23682;SDS011;24897;53.514;10.482;2023-02-19T03:11:11;50.10;;;37.13;;
23682;SDS011;24897;53.514;10.482;2023-02-19T03:14:15;55.00;;;38.30;;
23682;SDS011;24897;53.514;10.482;2023-02-19T03:17:28;53.30;;;37.30;;
23682;SDS011;24897;53.514;10.482;2023-02-19T03:20:39;52.70;;;35.80;;
23682;SDS011;24897;53.514;10.482;2023-02-19T03:23:27;47.93;;;36.30;;
23682;SDS011;24897;53.514;10.482;2023-02-19T03:26:34;48.97;;;37.67;;
23682;SDS011;24897;53.514;10.482;2023-02-19T03:29:20;53.30;;;37.10;;
23682;SDS011;24897;53.514;10.482;2023-02-19T03:32:13;49.50;;;36.70;;
23682;SDS011;24897;53.514;10.482;2023-02-19T03:35:17;50.47;;;38.20;;
23682;SDS011;24897;53.514;10.482;2023-02-19T03:41:08;48.97;;;37.03;;
23682;SDS011;24897;53.514;10.482;2023-02-19T03:44:37;55.07;;;38.07;;
23682;SDS011;24897;53.514;10.482;2023-02-19T03:47:29;54.13;;;38.40;;
23682;SDS011;24897;53.514;10.482;2023-02-19T03:50:26;48.23;;;38.63;;
23682;SDS011;24897;53.514;10.482;2023-02-19T03:56:24;53.00;;;38.67;;
23682;SDS011;24897;53.514;10.482;2023-02-19T03:59:17;53.83;;;39.10;;
23682;SDS011;24897;53.514;10.482;2023-02-19T04:02:07;48.03;;;38.47;;
23682;SDS011;24897;53.514;10.482;2023-02-19T04:05:01;52.17;;;39.13;;
23682;SDS011;24897;53.514;10.482;2023-02-19T04:07:56;50.00;;;39.43;;
23682;SDS011;24897;53.514;10.482;2023-02-19T04:10:57;49.27;;;37.87;;
23682;SDS011;24897;53.514;10.482;2023-02-19T04:13:47;51.47;;;37.63;;
23682;SDS011;24897;53.514;10.482;2023-02-19T04:16:39;52.93;;;37.80;;
23682;SDS011;24897;53.514;10.482;2023-02-19T04:19:26;52.77;;;39.27;;
23682;SDS011;24897;53.514;10.482;2023-02-19T04:22:13;55.33;;;38.63;;
23682;SDS011;24897;53.514;10.482;2023-02-19T04:25:00;48.63;;;36.80;;
23682;SDS011;24897;53.514;10.482;2023-02-19T04:27:44;54.30;;;38.47;;
23682;SDS011;24897;53.514;10.482;2023-02-19T04:30:29;56.93;;;38.77;;
23682;SDS011;24897;53.514;10.482;2023-02-19T04:33:14;53.20;;;38.67;;
23682;SDS011;24897;53.514;10.482;2023-02-19T04:35:58;58.07;;;39.10;;
23682;SDS011;24897;53.514;10.482;2023-02-19T04:38:42;51.93;;;37.83;;
23682;SDS011;24897;53.514;10.482;2023-02-19T04:41:26;54.77;;;40.10;;
23682;SDS011;24897;53.514;10.482;2023-02-19T04:44:10;56.07;;;39.67;;
23682;SDS011;24897;53.514;10.482;2023-02-19T04:46:54;53.73;;;38.80;;
23682;SDS011;24897;53.514;10.482;2023-02-19T04:49:38;54.00;;;38.13;;
23682;SDS011;24897;53.514;10.482;2023-02-19T04:52:22;54.03;;;38.83;;
23682;SDS011;24897;53.514;10.482;2023-02-19T04:55:06;53.17;;;37.53;;
23682;SDS011;24897;53.514;10.482;2023-02-19T04:57:51;52.27;;;37.73;;
23682;SDS011;24897;53.514;10.482;2023-02-19T05:00:36;54.80;;;39.13;;
23682;SDS011;24897;53.514;10.482;2023-02-19T05:03:19;53.43;;;39.30;;
23682;SDS011;24897;53.514;10.482;2023-02-19T05:06:04;55.50;;;42.47;;
23682;SDS011;24897;53.514;10.482;2023-02-19T05:08:50;55.87;;;38.83;;
23682;SDS011;24897;53.514;10.482;2023-02-19T05:11:34;60.23;;;41.70;;
23682;SDS011;24897;53.514;10.482;2023-02-19T05:14:18;52.10;;;38.07;;
23682;SDS011;24897;53.514;10.482;2023-02-19T05:17:02;49.70;;;36.87;;
23682;SDS011;24897;53.514;10.482;2023-02-19T05:19:47;54.20;;;39.50;;
23682;SDS011;24897;53.514;10.482;2023-02-19T05:22:31;56.33;;;39.53;;
23682;SDS011;24897;53.514;10.482;2023-02-19T05:25:15;58.40;;;40.73;;
23682;SDS011;24897;53.514;10.482;2023-02-19T05:27:59;52.90;;;36.63;;
23682;SDS011;24897;53.514;10.482;2023-02-19T05:31:02;48.70;;;36.53;;
23682;SDS011;24897;53.514;10.482;2023-02-19T05:33:49;53.87;;;38.60;;
23682;SDS011;24897;53.514;10.482;2023-02-19T05:36:36;53.53;;;36.53;;
23682;SDS011;24897;53.514;10.482;2023-02-19T05:39:21;63.13;;;40.63;;
23682;SDS011;24897;53.514;10.482;2023-02-19T05:42:05;47.47;;;36.27;;
23682;SDS011;24897;53.514;10.482;2023-02-19T05:44:49;53.77;;;36.90;;
23682;SDS011;24897;53.514;10.482;2023-02-19T05:47:33;57.37;;;40.33;;
23682;SDS011;24897;53.514;10.482;2023-02-19T05:50:17;49.47;;;35.97;;
23682;SDS011;24897;53.514;10.482;2023-02-19T05:53:02;53.20;;;36.23;;
23682;SDS011;24897;53.514;10.482;2023-02-19T05:55:47;50.37;;;37.37;;
23682;SDS011;24897;53.514;10.482;2023-02-19T05:58:34;47.30;;;35.73;;
23682;SDS011;24897;53.514;10.482;2023-02-19T06:01:25;54.07;;;38.13;;
23682;SDS011;24897;53.514;10.482;2023-02-19T06:04:13;57.40;;;38.93;;
23682;SDS011;24897;53.514;10.482;2023-02-19T06:06:58;51.67;;;36.27;;
23682;SDS011;24897;53.514;10.482;2023-02-19T06:09:42;55.13;;;36.50;;
23682;SDS011;24897;53.514;10.482;2023-02-19T06:12:26;52.40;;;35.83;;
23682;SDS011;24897;53.514;10.482;2023-02-19T06:15:10;56.23;;;39.80;;
23682;SDS011;24897;53.514;10.482;2023-02-19T06:17:55;58.37;;;36.90;;
23682;SDS011;24897;53.514;10.482;2023-02-19T06:20:39;51.67;;;36.10;;
23682;SDS011;24897;53.514;10.482;2023-02-19T06:23:23;53.73;;;37.00;;
23682;SDS011;24897;53.514;10.482;2023-02-19T06:26:12;51.83;;;37.30;;
23682;SDS011;24897;53.514;10.482;2023-02-19T06:29:00;62.97;;;39.73;;
23682;SDS011;24897;53.514;10.482;2023-02-19T06:31:44;61.33;;;37.50;;
23682;SDS011;24897;53.514;10.482;2023-02-19T06:34:28;56.07;;;38.73;;
23682;SDS011;24897;53.514;10.482;2023-02-19T06:37:13;52.70;;;36.37;;
23682;SDS011;24897;53.514;10.482;2023-02-19T06:39:57;56.67;;;34.93;;
23682;SDS011;24897;53.514;10.482;2023-02-19T06:42:41;58.60;;;38.10;;
23682;SDS011;24897;53.514;10.482;2023-02-19T06:45:25;62.20;;;38.80;;
23682;SDS011;24897;53.514;10.482;2023-02-19T06:48:09;57.60;;;37.87;;
23682;SDS011;24897;53.514;10.482;2023-02-19T06:50:53;63.80;;;38.23;;
23682;SDS011;24897;53.514;10.482;2023-02-19T06:53:38;56.50;;;39.27;;
23682;SDS011;24897;53.514;10.482;2023-02-19T06:56:26;59.07;;;38.63;;
23682;SDS011;24897;53.514;10.482;2023-02-19T06:59:18;50.73;;;37.87;;
23682;SDS011;24897;53.514;10.482;2023-02-19T07:02:02;58.03;;;39.40;;
23682;SDS011;24897;53.514;10.482;2023-02-19T07:04:46;56.10;;;37.93;;
23682;SDS011;24897;53.514;10.482;2023-02-19T07:07:30;52.30;;;38.07;;
23682;SDS011;24897;53.514;10.482;2023-02-19T07:10:14;54.90;;;37.77;;
23682;SDS011;24897;53.514;10.482;2023-02-19T07:12:59;58.33;;;37.97;;
23682;SDS011;24897;53.514;10.482;2023-02-19T07:15:43;56.57;;;38.30;;
23682;SDS011;24897;53.514;10.482;2023-02-19T07:18:28;55.27;;;39.57;;
23682;SDS011;24897;53.514;10.482;2023-02-19T07:21:13;52.30;;;38.53;;
23682;SDS011;24897;53.514;10.482;2023-02-19T07:23:58;53.57;;;37.63;;
23682;SDS011;24897;53.514;10.482;2023-02-19T07:26:43;50.63;;;36.50;;
23682;SDS011;24897;53.514;10.482;2023-02-19T07:29:27;54.43;;;36.60;;
23682;SDS011;24897;53.514;10.482;2023-02-19T07:32:11;48.90;;;33.70;;
23682;SDS011;24897;53.514;10.482;2023-02-19T07:34:55;52.77;;;34.27;;
23682;SDS011;24897;53.514;10.482;2023-02-19T07:37:39;52.93;;;34.13;;
23682;SDS011;24897;53.514;10.482;2023-02-19T07:40:24;51.07;;;32.77;;
23682;SDS011;24897;53.514;10.482;2023-02-19T07:43:08;44.97;;;33.53;;
23682;SDS011;24897;53.514;10.482;2023-02-19T07:45:52;47.87;;;33.77;;
23682;SDS011;24897;53.514;10.482;2023-02-19T07:48:37;47.43;;;33.80;;
23682;SDS011;24897;53.514;10.482;2023-02-19T07:51:23;51.07;;;34.20;;
23682;SDS011;24897;53.514;10.482;2023-02-19T07:54:06;46.20;;;34.73;;
23682;SDS011;24897;53.514;10.482;2023-02-19T07:56:51;58.27;;;34.97;;
23682;SDS011;24897;53.514;10.482;2023-02-19T07:59:35;44.57;;;33.03;;
23682;SDS011;24897;53.514;10.482;2023-02-19T08:02:19;44.87;;;32.37;;
23682;SDS011;24897;53.514;10.482;2023-02-19T08:05:22;44.73;;;32.67;;
23682;SDS011;24897;53.514;10.482;2023-02-19T08:08:10;51.63;;;33.40;;
23682;SDS011;24897;53.514;10.482;2023-02-19T08:11:00;44.63;;;32.87;;
23682;SDS011;24897;53.514;10.482;2023-02-19T08:14:05;45.93;;;32.80;;
23682;SDS011;24897;53.514;10.482;2023-02-19T08:16:52;41.47;;;31.77;;
23682;SDS011;24897;53.514;10.482;2023-02-19T08:19:36;42.80;;;31.33;;
23682;SDS011;24897;53.514;10.482;2023-02-19T08:22:20;45.73;;;32.03;;
23682;SDS011;24897;53.514;10.482;2023-02-19T08:25:05;44.97;;;32.13;;
23682;SDS011;24897;53.514;10.482;2023-02-19T08:27:49;40.97;;;31.20;;
23682;SDS011;24897;53.514;10.482;2023-02-19T08:30:34;44.03;;;32.93;;
23682;SDS011;24897;53.514;10.482;2023-02-19T08:33:21;43.23;;;32.80;;
23682;SDS011;24897;53.514;10.482;2023-02-19T08:36:05;43.73;;;32.37;;
23682;SDS011;24897;53.514;10.482;2023-02-19T08:38:51;44.80;;;31.53;;
23682;SDS011;24897;53.514;10.482;2023-02-19T08:41:35;40.93;;;31.83;;
23682;SDS011;24897;53.514;10.482;2023-02-19T08:44:19;42.13;;;30.47;;
23682;SDS011;24897;53.514;10.482;2023-02-19T08:47:03;42.77;;;31.77;;
23682;SDS011;24897;53.514;10.482;2023-02-19T08:49:48;43.27;;;31.03;;
23682;SDS011;24897;53.514;10.482;2023-02-19T08:52:32;37.47;;;30.63;;
23682;SDS011;24897;53.514;10.482;2023-02-19T08:55:16;35.47;;;27.57;;
23682;SDS011;24897;53.514;10.482;2023-02-19T08:58:01;32.97;;;27.00;;
23682;SDS011;24897;53.514;10.482;2023-02-19T09:00:45;37.00;;;28.23;;
23682;SDS011;24897;53.514;10.482;2023-02-19T09:03:30;37.23;;;29.17;;
23682;SDS011;24897;53.514;10.482;2023-02-19T09:06:15;29.73;;;26.30;;
23682;SDS011;24897;53.514;10.482;2023-02-19T09:09:00;29.27;;;26.17;;
23682;SDS011;24897;53.514;10.482;2023-02-19T09:11:45;32.87;;;28.43;;
23682;SDS011;24897;53.514;10.482;2023-02-19T09:14:32;36.03;;;30.33;;
23682;SDS011;24897;53.514;10.482;2023-02-19T09:17:17;37.17;;;33.07;;
23682;SDS011;24897;53.514;10.482;2023-02-19T09:20:02;37.67;;;33.57;;
23682;SDS011;24897;53.514;10.482;2023-02-19T09:22:47;36.97;;;33.37;;
23682;SDS011;24897;53.514;10.482;2023-02-19T09:25:31;38.60;;;34.80;;
23682;SDS011;24897;53.514;10.482;2023-02-19T09:28:15;35.77;;;32.37;;
23682;SDS011;24897;53.514;10.482;2023-02-19T09:31:06;34.60;;;31.63;;
23682;SDS011;24897;53.514;10.482;2023-02-19T09:33:51;34.10;;;30.80;;
23682;SDS011;24897;53.514;10.482;2023-02-19T09:36:35;32.23;;;29.33;;
23682;SDS011;24897;53.514;10.482;2023-02-19T09:39:22;30.93;;;27.83;;
23682;SDS011;24897;53.514;10.482;2023-02-19T09:42:17;58.70;;;54.40;;
23682;SDS011;24897;53.514;10.482;2023-02-19T09:45:03;61.83;;;57.03;;
23682;SDS011;24897;53.514;10.482;2023-02-19T09:47:48;56.80;;;52.50;;
23682;SDS011;24897;53.514;10.482;2023-02-19T09:50:36;59.50;;;55.30;;
23682;SDS011;24897;53.514;10.482;2023-02-19T09:53:24;58.23;;;53.70;;
23682;SDS011;24897;53.514;10.482;2023-02-19T09:56:12;57.33;;;53.13;;
23682;SDS011;24897;53.514;10.482;2023-02-19T09:58:57;54.47;;;50.67;;
23682;SDS011;24897;53.514;10.482;2023-02-19T10:01:42;46.50;;;42.70;;
23682;SDS011;24897;53.514;10.482;2023-02-19T10:04:28;44.33;;;41.03;;
23682;SDS011;24897;53.514;10.482;2023-02-19T10:07:12;43.80;;;40.60;;
23682;SDS011;24897;53.514;10.482;2023-02-19T10:10:28;42.07;;;38.93;;
23682;SDS011;24897;53.514;10.482;2023-02-19T10:13:17;40.37;;;37.47;;
23682;SDS011;24897;53.514;10.482;2023-02-19T10:16:05;60.47;;;54.10;;
23682;SDS011;24897;53.514;10.482;2023-02-19T10:18:53;43.93;;;40.63;;
23682;SDS011;24897;53.514;10.482;2023-02-19T10:21:39;40.43;;;37.30;;
23682;SDS011;24897;53.514;10.482;2023-02-19T10:24:24;38.13;;;35.27;;
23682;SDS011;24897;53.514;10.482;2023-02-19T10:27:12;38.53;;;35.67;;
23682;SDS011;24897;53.514;10.482;2023-02-19T10:29:56;39.10;;;36.13;;
23682;SDS011;24897;53.514;10.482;2023-02-19T10:32:44;17.93;;;16.33;;
23682;SDS011;24897;53.514;10.482;2023-02-19T10:35:56;20.47;;;18.67;;
23682;SDS011;24897;53.514;10.482;2023-02-19T10:38:44;18.33;;;16.57;;
23682;SDS011;24897;53.514;10.482;2023-02-19T10:41:30;18.13;;;16.33;;
23682;SDS011;24897;53.514;10.482;2023-02-19T10:44:20;16.50;;;15.00;;
23682;SDS011;24897;53.514;10.482;2023-02-19T10:47:06;16.93;;;15.10;;
23682;SDS011;24897;53.514;10.482;2023-02-19T10:49:52;16.37;;;14.90;;
23682;SDS011;24897;53.514;10.482;2023-02-19T10:52:40;19.20;;;17.30;;
23682;SDS011;24897;53.514;10.482;2023-02-19T10:55:29;18.10;;;16.30;;
23682;SDS011;24897;53.514;10.482;2023-02-19T10:58:25;18.30;;;16.50;;
23682;SDS011;24897;53.514;10.482;2023-02-19T11:04:15;18.67;;;16.80;;
23682;SDS011;24897;53.514;10.482;2023-02-19T11:07:14;17.57;;;15.97;;
23682;SDS011;24897;53.514;10.482;2023-02-19T11:10:00;17.27;;;15.70;;
23682;SDS011;24897;53.514;10.482;2023-02-19T11:12:46;17.53;;;15.90;;
23682;SDS011;24897;53.514;10.482;2023-02-19T11:15:36;20.13;;;16.07;;
23682;SDS011;24897;53.514;10.482;2023-02-19T11:18:22;16.67;;;15.07;;
23682;SDS011;24897;53.514;10.482;2023-02-19T11:21:28;17.20;;;15.70;;
23682;SDS011;24897;53.514;10.482;2023-02-19T11:24:37;20.60;;;18.47;;
23682;SDS011;24897;53.514;10.482;2023-02-19T11:27:23;17.87;;;16.07;;
23682;SDS011;24897;53.514;10.482;2023-02-19T11:36:17;16.27;;;14.70;;
23682;SDS011;24897;53.514;10.482;2023-02-19T11:47:56;16.10;;;14.80;;
23682;SDS011;24897;53.514;10.482;2023-02-19T11:51:20;15.60;;;14.17;;
23682;SDS011;24897;53.514;10.482;2023-02-19T12:00:25;15.93;;;14.40;;
23682;SDS011;24897;53.514;10.482;2023-02-19T12:25:18;15.40;;;14.00;;
23682;SDS011;24897;53.514;10.482;2023-02-19T12:28:26;15.23;;;13.97;;
23682;SDS011;24897;53.514;10.482;2023-02-19T12:34:36;15.90;;;14.37;;
23682;SDS011;24897;53.514;10.482;2023-02-19T12:43:23;15.37;;;13.97;;
23682;SDS011;24897;53.514;10.482;2023-02-19T12:46:11;15.73;;;14.37;;
23682;SDS011;24897;53.514;10.482;2023-02-19T12:49:10;15.57;;;14.17;;
23682;SDS011;24897;53.514;10.482;2023-02-19T12:52:09;15.60;;;14.27;;
23682;SDS011;24897;53.514;10.482;2023-02-19T12:55:01;15.27;;;14.10;;
23682;SDS011;24897;53.514;10.482;2023-02-19T12:58:08;15.83;;;14.50;;
23682;SDS011;24897;53.514;10.482;2023-02-19T13:01:09;15.37;;;13.93;;
23682;SDS011;24897;53.514;10.482;2023-02-19T13:04:05;15.37;;;14.07;;
23682;SDS011;24897;53.514;10.482;2023-02-19T13:09:49;16.37;;;14.87;;
23682;SDS011;24897;53.514;10.482;2023-02-19T13:12:39;16.03;;;14.60;;
23682;SDS011;24897;53.514;10.482;2023-02-19T13:15:36;16.00;;;14.77;;
23682;SDS011;24897;53.514;10.482;2023-02-19T13:18:34;16.27;;;14.80;;
23682;SDS011;24897;53.514;10.482;2023-02-19T13:21:39;16.37;;;14.73;;
23682;SDS011;24897;53.514;10.482;2023-02-19T13:24:44;16.47;;;14.87;;
23682;SDS011;24897;53.514;10.482;2023-02-19T13:27:34;16.00;;;14.70;;
23682;SDS011;24897;53.514;10.482;2023-02-19T13:37:10;15.53;;;14.23;;
23682;SDS011;24897;53.514;10.482;2023-02-19T13:39:55;15.60;;;14.30;;
23682;SDS011;24897;53.514;10.482;2023-02-19T13:42:43;15.57;;;14.30;;
23682;SDS011;24897;53.514;10.482;2023-02-19T13:48:25;15.03;;;13.93;;
23682;SDS011;24897;53.514;10.482;2023-02-19T13:54:18;16.07;;;14.53;;
23682;SDS011;24897;53.514;10.482;2023-02-19T13:57:24;15.70;;;14.40;;
23682;SDS011;24897;53.514;10.482;2023-02-19T14:03:45;15.70;;;14.50;;
23682;SDS011;24897;53.514;10.482;2023-02-19T14:09:45;16.20;;;14.67;;
23682;SDS011;24897;53.514;10.482;2023-02-19T14:12:31;15.70;;;14.33;;
23682;SDS011;24897;53.514;10.482;2023-02-19T14:18:44;15.67;;;14.17;;
23682;SDS011;24897;53.514;10.482;2023-02-19T14:21:36;15.97;;;14.47;;
23682;SDS011;24897;53.514;10.482;2023-02-19T14:24:22;15.80;;;14.40;;
23682;SDS011;24897;53.514;10.482;2023-02-19T14:27:08;15.77;;;14.37;;
23682;SDS011;24897;53.514;10.482;2023-02-19T14:29:53;15.80;;;14.40;;
23682;SDS011;24897;53.514;10.482;2023-02-19T14:32:41;17.30;;;15.60;;
23682;SDS011;24897;53.514;10.482;2023-02-19T14:35:29;16.03;;;14.50;;
23682;SDS011;24897;53.514;10.482;2023-02-19T14:38:25;15.73;;;14.20;;
23682;SDS011;24897;53.514;10.482;2023-02-19T14:41:14;15.57;;;14.23;;
23682;SDS011;24897;53.514;10.482;2023-02-19T14:44:00;16.10;;;14.53;;
23682;SDS011;24897;53.514;10.482;2023-02-19T14:47:07;17.00;;;15.40;;
23682;SDS011;24897;53.514;10.482;2023-02-19T14:49:53;16.37;;;14.97;;
23682;SDS011;24897;53.514;10.482;2023-02-19T14:52:46;17.10;;;15.50;;
23682;SDS011;24897;53.514;10.482;2023-02-19T14:55:35;17.67;;;15.87;;
23682;SDS011;24897;53.514;10.482;2023-02-19T14:58:23;16.97;;;15.47;;
23682;SDS011;24897;53.514;10.482;2023-02-19T15:01:25;17.33;;;15.70;;
23682;SDS011;24897;53.514;10.482;2023-02-19T15:04:24;17.10;;;15.43;;
23682;SDS011;24897;53.514;10.482;2023-02-19T15:07:14;16.43;;;14.73;;
23682;SDS011;24897;53.514;10.482;2023-02-19T15:10:03;16.53;;;14.97;;
23682;SDS011;24897;53.514;10.482;2023-02-19T15:12:49;15.70;;;14.20;;
23682;SDS011;24897;53.514;10.482;2023-02-19T15:15:41;16.23;;;14.73;;
23682;SDS011;24897;53.514;10.482;2023-02-19T15:18:28;15.77;;;14.37;;
23682;SDS011;24897;53.514;10.482;2023-02-19T15:24:07;15.63;;;14.30;;
23682;SDS011;24897;53.514;10.482;2023-02-19T15:26:52;16.00;;;14.57;;
23682;SDS011;24897;53.514;10.482;2023-02-19T15:29:37;15.77;;;14.27;;
23682;SDS011;24897;53.514;10.482;2023-02-19T15:32:32;15.60;;;14.10;;
23682;SDS011;24897;53.514;10.482;2023-02-19T15:35:20;16.23;;;14.80;;
23682;SDS011;24897;53.514;10.482;2023-02-19T15:38:07;15.97;;;14.47;;
23682;SDS011;24897;53.514;10.482;2023-02-19T15:40:55;15.37;;;14.07;;
23682;SDS011;24897;53.514;10.482;2023-02-19T15:43:44;17.93;;;14.60;;
23682;SDS011;24897;53.514;10.482;2023-02-19T15:46:33;15.60;;;14.30;;
23682;SDS011;24897;53.514;10.482;2023-02-19T15:49:30;17.30;;;15.37;;
23682;SDS011;24897;53.514;10.482;2023-02-19T15:52:41;16.70;;;15.10;;
23682;SDS011;24897;53.514;10.482;2023-02-19T15:56:02;17.03;;;15.30;;
23682;SDS011;24897;53.514;10.482;2023-02-19T15:58:52;21.03;;;17.97;;
23682;SDS011;24897;53.514;10.482;2023-02-19T16:01:53;17.27;;;15.60;;
23682;SDS011;24897;53.514;10.482;2023-02-19T16:04:39;17.90;;;16.10;;
23682;SDS011;24897;53.514;10.482;2023-02-19T16:07:30;17.90;;;16.40;;
23682;SDS011;24897;53.514;10.482;2023-02-19T16:10:18;18.90;;;17.10;;
23682;SDS011;24897;53.514;10.482;2023-02-19T16:13:10;19.83;;;18.07;;
23682;SDS011;24897;53.514;10.482;2023-02-19T16:15:56;21.90;;;19.70;;
23682;SDS011;24897;53.514;10.482;2023-02-19T16:18:44;20.33;;;17.63;;
23682;SDS011;24897;53.514;10.482;2023-02-19T16:21:31;20.50;;;18.40;;
23682;SDS011;24897;53.514;10.482;2023-02-19T16:24:17;24.00;;;20.40;;
23682;SDS011;24897;53.514;10.482;2023-02-19T16:27:12;22.00;;;19.70;;
23682;SDS011;24897;53.514;10.482;2023-02-19T16:36:20;23.70;;;21.27;;
23682;SDS011;24897;53.514;10.482;2023-02-19T16:39:17;24.77;;;22.27;;
23682;SDS011;24897;53.514;10.482;2023-02-19T16:42:12;25.33;;;22.93;;
23682;SDS011;24897;53.514;10.482;2023-02-19T16:44:57;26.00;;;23.67;;
23682;SDS011;24897;53.514;10.482;2023-02-19T16:47:41;26.17;;;23.77;;
23682;SDS011;24897;53.514;10.482;2023-02-19T16:50:34;27.90;;;25.23;;
23682;SDS011;24897;53.514;10.482;2023-02-19T16:53:20;26.87;;;23.10;;
23682;SDS011;24897;53.514;10.482;2023-02-19T16:56:12;27.87;;;25.30;;
23682;SDS011;24897;53.514;10.482;2023-02-19T16:58:58;27.20;;;24.43;;
23682;SDS011;24897;53.514;10.482;2023-02-19T17:01:42;28.47;;;25.47;;
23682;SDS011;24897;53.514;10.482;2023-02-19T17:04:26;27.27;;;24.40;;
23682;SDS011;24897;53.514;10.482;2023-02-19T17:07:12;27.47;;;24.67;;
23682;SDS011;24897;53.514;10.482;2023-02-19T17:09:57;26.90;;;24.60;;
23682;SDS011;24897;53.514;10.482;2023-02-19T17:12:42;31.90;;;29.10;;
23682;SDS011;24897;53.514;10.482;2023-02-19T17:15:26;30.30;;;27.43;;
23682;SDS011;24897;53.514;10.482;2023-02-19T17:18:10;29.33;;;26.47;;
23682;SDS011;24897;53.514;10.482;2023-02-19T17:21:00;31.50;;;28.43;;
23682;SDS011;24897;53.514;10.482;2023-02-19T17:23:52;31.20;;;28.50;;
23682;SDS011;24897;53.514;10.482;2023-02-19T17:26:38;29.40;;;26.70;;
23682;SDS011;24897;53.514;10.482;2023-02-19T17:29:23;30.90;;;28.03;;
23682;SDS011;24897;53.514;10.482;2023-02-19T17:32:07;32.30;;;29.50;;
23682;SDS011;24897;53.514;10.482;2023-02-19T17:34:51;31.83;;;28.73;;
23682;SDS011;24897;53.514;10.482;2023-02-19T17:37:35;30.80;;;28.00;;
23682;SDS011;24897;53.514;10.482;2023-02-19T17:43:06;32.37;;;29.13;;
23682;SDS011;24897;53.514;10.482;2023-02-19T17:45:51;31.43;;;28.43;;
23682;SDS011;24897;53.514;10.482;2023-02-19T17:48:36;32.57;;;29.20;;
23682;SDS011;24897;53.514;10.482;2023-02-19T17:51:20;29.93;;;27.10;;
23682;SDS011;24897;53.514;10.482;2023-02-19T17:54:04;29.60;;;26.70;;
23682;SDS011;24897;53.514;10.482;2023-02-19T17:56:48;28.37;;;25.33;;
23682;SDS011;24897;53.514;10.482;2023-02-19T17:59:33;27.83;;;25.07;;
23682;SDS011;24897;53.514;10.482;2023-02-19T18:02:17;29.90;;;25.87;;
23682;SDS011;24897;53.514;10.482;2023-02-19T18:05:01;28.07;;;25.23;;
23682;SDS011;24897;53.514;10.482;2023-02-19T18:07:45;29.13;;;25.40;;
23682;SDS011;24897;53.514;10.482;2023-02-19T18:10:30;28.87;;;25.93;;
23682;SDS011;24897;53.514;10.482;2023-02-19T18:13:14;28.87;;;26.13;;